KLSSOUTHWEST WASHINGTON RGNL
METARs for nearby airports:
N 0 20' KKLS 120119Z 00000KT 9SM RA FEW018 OVC041 09/08 A2980
S 20 58' KSPB 120100Z 22007KT 160V250 3SM -RA BR FEW012 BKN036 OVC046 11/09 A2978
S 31 28' KVUO 120053Z 19007G15KT 150V220 10SM -RA FEW013 BKN060 OVC070 11/09 A2978
N 33 177' KCLS 120115Z 23004KT 9SM SCT031 BKN044 OVC070 09/08 A2971
S 34 30' KPDX 120053Z 20015G24KT 10SM -RA SCT015 BKN055 OVC100 11/09 A2978
S 34 208' KHIO 120053Z 19009KT 5SM -RA BR BKN007 OVC055 10/09 A2977
SE 39 38' KTTD 120053Z 21015G23KT 10SM -RA FEW017 BKN065 OVC080 12/09 A2978
W 40 14' KAST 120055Z 23006KT 9SM OVC060 09/09 A2978
N 51 207' KOLM 120054Z 21008KT 10SM FEW023 BKN035 OVC055 09/07 A2973
S 52 199' KUAO 120053Z 20013G21KT 3SM RA BR BKN009 BKN019 OVC043 11/10 A2979
S 56 162' KMMV 120122Z 23016G32KT 5SM RA BR SCT015 BKN025 OVC043 11/09 A2982
SW 56 39' KTMK 120115Z 22011G19KT 5SM RA SCT015 BKN033 OVC050 11/10 A2986
N 59 300' KGRF 120059Z 17008KT 10SM FEW026 SCT033 09/09 A2971
N 63 322' KTCM 120102Z 21012KT 10SM SCT023 SCT035 BKN055 09/09 A2971
N 64 537' KPLU 120115Z VRB06G14KT 180V240 7SM -DZ FEW012 SCT027 BKN035 09/09 A2973
NW 66 17' KHQM 120053Z 24018KT 3SM -RA BR FEW025 BKN050 OVC075 11/09 A2972
N 67 272' KSHN 120120Z 27015G24KT 1 3/4SM +RA BR SCT012 BKN019 OVC032 09/07 A2969
N 70 294' KTIW 120053Z 19013G19KT 10SM -RA BKN014 BKN050 OVC070 09/08 A2969
S 72 213' KSLE 120056Z 19018G26KT 8SM RA BKN010 BKN016 OVC065 11/09 A2981
E 78 246' KDLS 120105Z 00000KT 6SM -RA BR BKN007 BKN060 OVC070 03/03 A2977
N 82 444' KPWT 120056Z 19012KT 10SM FEW055 BKN110 08/08 A2965
N 83 432' KSEA 120121Z 20015G26KT 10SM FEW009 BKN019 OVC100 09/07 A2966
N 87 32' KRNT 120053Z 17011G16KT 10SM BKN013 BKN065 OVC100 10/09 A2967
N 88 21' KBFI 120053Z 17008KT 10SM -RA BKN014 BKN020 OVC090 10/08 A2965
S 98 249' KCVO 120107Z 18017KT 6SM -RA BR FEW006 BKN029 OVC044 09/09 A2986
TAFs for nearby airports:
S 34 30' KPDX TAF
  AMD KPDX 120102Z 1201/1224 20013G23KT P6SM -RA SCT020 BKN045 OVC060
  FM120300 25010KT P6SM -SHRA SCT025 BKN040 BKN060
  FM121200 26008KT P6SM VCSH SCT025 BKN040 BKN060
  FM122000 21007KT P6SM BKN045 OVC070
S 34 208' KHIO KHIO 120104Z 1201/1224 20010KT 5SM -RA BKN007 BKN045 OVC060
  TEMPO 1201/1203 SCT007 OVC045
  FM120300 24007KT P6SM -SHRA SCT025 BKN040 BKN060
  FM121200 VRB03KT P6SM VCSH SCT025 BKN040 BKN060
  FM122000 19006KT P6SM BKN045 OVC070
SE 39 38' KTTD KTTD 112331Z 1200/1224 19011G20KT 3SM -RA BR BKN025 OVC040
  FM120300 24008KT 5SM -RADZ BKN015 OVC030
  FM120700 24007KT P6SM -SHRA SCT020 BKN035
W 40 14' KAST TAF
  AMD KAST 120058Z 1201/1224 27012G22KT 5SM -RA SCT010 BKN035 OVC050
  FM120200 26011G20KT P6SM -SHRA SCT025 BKN035 BKN050
  FM121200 25009KT P6SM -SHRA SCT035 BKN050
  FM122000 21010KT P6SM BKN045 OVC070
N 51 207' KOLM KOLM 112337Z 1200/1224 20012G24KT 5SM -RA BR SCT010 BKN030
  FM120200 23015G22KT P6SM -SHRA BKN015 OVC030
  FM121200 24011KT P6SM VCSH OVC030
  FM121700 21008KT P6SM OVC035
  FM122000 21012G18KT P6SM VCSH BKN025
S 52 199' KUAO KUAO 112331Z 1200/1224 18012G22KT 3SM -RA BR BKN020 OVC040
  FM120300 22012G20KT 5SM -RADZ BKN015 OVC030
  FM120600 21012KT P6SM -SHRA SCT025 BKN035
N 59 300' KGRF TAF
  AMD KGRF 112228Z 1122/1303 20009KT 9000 -RA OVC030 620504 QNH2966INS
  TEMPO 1122/1202 20012G18KT BKN015
  BECMG 1201/1202 25009KT 9000 -SHRA BKN020 610405 QNH2965INS
  BECMG 1204/1205 25009KT 9999 NSW SCT020 QNH2974INS
  BECMG 1221/1222 20009KT 9000 -RA OVC050 620504 QNH3020INS TX10/1123Z TN02/1213Z
N 63 322' KTCM TAF
  AMD KTCM 120114Z 1201/1303 20012G18KT 9000 -RA OVC030 520009 QNH2966INS
  BECMG 1202/1203 25009KT 9000 -SHRA BKN020 QNH2965INS
  BECMG 1204/1205 25009KT 9999 NSW SCT020 QNH2974INS
  BECMG 1221/1222 20009KT 9000 -RA OVC050 QNH3020INS TX10/1201Z TN02/1213Z
NW 66 17' KHQM KHQM 112337Z 1200/1224 20015G22KT 4SM -RA BR SCT007 BKN030 OVC050
  FM120100 23014G22KT 5SM -SHRA BR BKN025 OVC050
  FM120600 25018G25KT P6SM VCSH OVC050
  FM121200 26012KT P6SM BKN050
  FM121900 18012G18KT P6SM VCSH SCT025 OVC040
S 72 213' KSLE KSLE 112331Z 1200/1224 19021G30KT 3SM -RA BR OVC035
  FM120300 22014G26KT 4SM -RADZ BKN015 OVC030
  FM120600 22010KT P6SM -SHRA SCT020 BKN035
E 78 246' KDLS TAF KDLS 112320Z 1200/1224 VRB04KT 4SM -RA BR BKN006 OVC050
  FM120200 30014G24KT 6SM -RA BR FEW006 SCT020 OVC040
  FM120600 30022G32KT P6SM -SHRA SCT040 BKN070
  FM121300 30014G22KT P6SM FEW050 SCT100 BKN250
  FM121700 30008G16KT P6SM SCT050 BKN250
N 82 444' KPWT TAF KPWT 112337Z 1200/1224 20016G25KT 6SM -RA BR OVC004
  FM120200 19017G27KT P6SM -SHRA BKN005 OVC012
  FM121100 20012G20KT P6SM VCSH BKN010 OVC025
  FM121600 19010G15KT P6SM SCT012 OVC020
  FM122000 19016G22KT P6SM VCSH BKN030
N 83 432' KSEA KSEA 112337Z 1200/1306 19020G25KT 5SM -RA BR SCT008 BKN010 OVC030
  FM120300 21015G20KT P6SM -SHRA BKN015 OVC030
  FM121200 22017G25KT P6SM VCSH OVC030
  FM121700 20012G18KT P6SM OVC035
  FM122100 20015G20KT P6SM VCSH BKN040
  FM130100 19013KT P6SM -SHRA SCT025 OVC040
  FM130400 18012KT 6SM RA BR OVC030
N 88 21' KBFI TAF KBFI 112337Z 1200/1224 17012G20KT 5SM -RA BR BKN010 OVC030
  FM120300 19010G18KT P6SM -SHRA BKN012 OVC025
  FM121200 20010G18KT P6SM VCSH OVC030
  FM121700 17010G15KT P6SM OVC040
  FM122100 17012G18KT P6SM VCSH BKN040
Area forecast:
000
FAUS46 KKCI 101945
FA6W  
SFOC FA 101945
SYNOPSIS AND VFR CLDS/WX
SYNOPSIS VALID UNTIL 111400
CLDS/WX VALID UNTIL 110800...OTLK VALID 110800-111400
WA OR CA AND CSTL WTRS
.
SEE AIRMET SIERRA FOR IFR CONDS AND MTN OBSCN.
TS IMPLY SEV OR GTR TURB SEV ICE LLWS AND IFR CONDS.
NON MSL HGTS DENOTED BY AGL OR CIG.
.
SYNOPSIS...UPR LVL TROF WAS LOCATED NR 130W. MOIST SWLY FLOW
EXTDS FROM PAC NW EWD INTO NRN ROCKIES. HIGH PRES RIDGE WAS OVR
MUCH OF THE REST OF THE AREA. BY 14Z...UPR LVL TROF WILL EXTD
FROM WA-OR SWD INTO CA.  ..STREIB..
.
WA CASCDS WWD
CSTL SXNS
CSTLN-INLAND...SCT-BKN025 BKN035-050 TOPS 120-140. ISOL -SHRA.
   OTLK...MVFR CIGS SHRA BR.
PUGET SOUND-INTR VLY...SCT-BKN020 BKN-OVC035-050 TOPS 160 BKN CI.
   WDLY SCT -SHRA. OTLK...MVFR CIGS SHRA.
CASCDS...BKN-OVC050-070 TOPS FL180. BKN CI ABV. WDLY SCT -SHRA.
   OTLK...MVFR CIGS SHRA.
.
WA E OF CASCDS
CNTRL WA...SCT140 OVC CI. BECMG 2302 SCT080 BKN120 LYRD FL240.
   OTLK...VFR.
ERN WA...SCT-BKN140-160 LYRD FL240. BECMG 0508 BKN080 OVC120
   LYRD FL240 ISOL -SHRA DVLPG. OTLK...VFR.
.
OR CASCDS WWD
CSTL SXNS
CSTLN-INLAND...SCT-BKN020 BKN-OVC035-050 TOPS FL180. WDLY SCT
   -SHRA. OTLK...MVFR CIGS SHRA.
WILLAMETTE VLY/SWRN INTR...SCT-BKN020 BKN-OVC035-050 TOPS FL180.
   WDLY SCT -SHRA. OTLK...MVFR CIGS SHRA.
CASCDS...SCT-BKN060 BKN-OVC080-100 TOPS FL180 ISOL -SHRA.
   OTLK...MVFR CIGS SHRA.
.
OR E OF CASCDS
CNTRL...SCT100-120 BKN150 LYRD FL240. OTLK...VFR.
ERN...SCT130-150 BKN CI. BECMG 0205 OVC120-140 LYRD FL240.
   OTLK...VFR.
.
NRN CA...STS-SAC-TVL LN NWD
CSTL SXNS...
   FOT NWD...SCT025 BKN CI ABV. BECMG 0205 SCT020 OVC050 TOPS
      160. ISOL -SHRA. OTLK...IFR CIGS.
   S OF FOT...SCT-BKN010 TOPS 030-040. OTLK...IFR CIGS.
REST OF AREA...SKC OCNL SCT CI. OCNL VYS 3-5SM FU HZ.
   OTLK...VFR.
SAC VLY...
   NRN AND CNTRL SXNS...SKC. OTLK...VFR.
   SRN SXNS...SKC. OCNL VIS 3-5SM FU HZ. OTLK...MVFR FU HZ.
SHASTA-SISKIYOUS-NERN CA...
NRN SIERRAS...SKC OCNL SCT CI. WINDS SLY G25KT. OTLK...VFR WIND.
.
CNTRL CA
CSTL SXNS...
   CSTLN...SKC OCNL SCT010. BECMG 0508 OCNL CIGS BKN-SCT010 TOPS
      020-030. OTLK...IFR CIGS.
   INLAND...SKC. OTLK...VFR BECMG 1114 IFR CIGS BR.
SAN JOAQUIN VLY...SKC. OTLK...VFR.
SRN SIERRAS..SKC. OTLK...VFR.
.
SRN CA..VBG-NID-60NNW BIH LN SWD
CSTL SXNS...
   CSTLN...
      EXTRM SRN SXNS...SKC. BECMG 0205 SCT010. BECMG 0508 CIGS
         BKN-OVC010 TOPS 030. OTLK...IFR CIGS.
      REST OF AREA...SKC. OTLK...VFR BECMG 0811 IFR CIGS BR.
   INLAND...SKC OCNL FEW CI. OTLK...VFR.
INTR MTNS-MOJAVE-SRN DESERTS...SKC OCNL FEW CI. OTLK...VFR.
.
CSTL WTRS
WA...SCT-BKN035-050 TOPS 100-120. ISOL -SHRA. OTLK...VFR.
OR...
NWRN HLF...SCT-BKN035-050 TOPS 100-120. ISOL -SHRA. OTLK...VFR.
SERN HLF...SCT-BKN025 BKN035-050 TOPS FL180 BKN CI ABV. WDLY SCT
   -SHRA. OTLK...MVFR CIGS SHRA.
CA...
NRN CA...
   FOT NWD...SCT025 BKN CI ABV. BECMG 0205 SCT020 OVC050 TOPS
      160. ISOL -SHRA. OTLK...IFR CIGS.
   S OF FOT...SCT-BKN010 TOPS 030-040. OTLK...IFR CIGS.
CNTRL CA...SCT-BKN010 TOPS 030-040. OTLK...IFR CIGS.
SRN CA...
   OUTER CSTL WTRS...CIGS BKN010-020 TOPS 030-050.
      OTLK...IFR CIGS.
   ADJ CSTL WTRS...SKC. OCNL AGL SCT010. OTLK...VFR BECMG 0811
      IFR CIGS BR.
.
THE AREA FORECAST WILL TERMINATE AT 2359Z ON 10 OCTOBER 2017. IN
PLACE OF THE AREA FORECAST...PLEASE SEE THE GRAPHICAL FORECAST AT
WWW.AVIATIONWEATHER.GOV/GFA. GRAPHICAL AND TEXT AIRMETS WILL
CONTINUE AS REGULARLY SCHEDULED.
....

Shortcut to this page: http://wxbay.com.

Data may contain errors.